createdAt,value
2017-11-12T07:11:45.158Z,7.48
2017-11-12T07:12:59.333Z,7.47
2017-11-12T07:14:13.694Z,7.54
2017-11-12T07:15:28.005Z,7.6
2017-11-12T07:16:42.399Z,7.64
2017-11-12T07:17:56.884Z,7.66
2017-11-12T07:19:11.936Z,7.66
2017-11-12T07:20:26.190Z,7.66
2017-11-12T07:21:41.082Z,7.67
2017-11-12T07:22:56.840Z,7.64
2017-11-12T07:24:11.419Z,7.64
2017-11-12T07:25:26.121Z,7.62
2017-11-12T07:26:40.867Z,7.63
2017-11-12T07:27:55.500Z,7.63
2017-11-12T07:29:10.186Z,7.65
2017-11-12T07:30:24.483Z,7.67
2017-11-12T07:31:40.361Z,7.71
2017-11-12T07:33:29.111Z,7.76
2017-11-12T07:34:43.477Z,7.8
2017-11-12T07:35:57.692Z,7.84
2017-11-12T07:37:29.424Z,7.88
2017-11-12T07:38:43.776Z,7.95
2017-11-12T07:39:58.032Z,8
2017-11-12T07:41:12.427Z,8.05
2017-11-12T07:44:11.493Z,8.11
2017-11-12T07:45:26.146Z,8.12
2017-11-12T07:46:56.183Z,8.14
2017-11-12T07:48:12.600Z,8.15
2017-11-12T07:49:26.936Z,8.15
2017-11-12T07:50:58.315Z,8.15
2017-11-12T07:52:12.606Z,8.15
2017-11-12T07:53:28.244Z,8.16
2017-11-12T07:54:42.792Z,8.17
2017-11-12T07:55:57.057Z,8.18
2017-11-12T07:57:26.480Z,8.22
2017-11-12T07:58:41.085Z,8.24
2017-11-12T07:59:55.495Z,8.27
2017-11-12T08:01:09.691Z,8.3
2017-11-12T08:02:24.044Z,8.32
2017-11-12T08:03:38.949Z,8.35
2017-11-12T08:04:53.740Z,8.35
2017-11-12T08:06:07.912Z,8.36
2017-11-12T08:07:32.368Z,8.33
2017-11-12T08:08:47.232Z,8.29
2017-11-12T08:10:02.061Z,8.24
2017-11-12T08:11:16.311Z,8.21
2017-11-12T08:12:31.198Z,8.15
2017-11-12T08:13:45.718Z,8.1
2017-11-12T08:15:13.391Z,8.03
2017-11-12T08:16:28.152Z,7.97
2017-11-12T08:17:42.512Z,7.93
2017-11-12T08:18:57.858Z,7.9
2017-11-12T08:20:12.261Z,7.87
2017-11-12T08:21:27.392Z,7.84
2017-11-12T08:22:41.857Z,7.84
2017-11-12T08:23:56.058Z,7.83
2017-11-12T08:25:10.559Z,7.83
2017-11-12T08:26:24.774Z,7.83
2017-11-12T08:27:40.306Z,7.85
2017-11-12T08:28:55.943Z,7.86
2017-11-12T08:30:10.313Z,7.9
2017-11-12T08:31:24.954Z,7.92
2017-11-12T08:32:40.587Z,7.95
2017-11-12T08:33:55.925Z,7.98
2017-11-12T08:35:10.549Z,8.01
2017-11-12T08:36:24.768Z,8.03
2017-11-12T08:37:39.905Z,8.07
2017-11-12T08:38:54.653Z,8.08
2017-11-12T08:40:27.285Z,8.13
2017-11-12T08:41:42.285Z,8.16
2017-11-12T08:42:57.029Z,8.19
2017-11-12T08:44:11.667Z,8.2
2017-11-12T08:45:26.441Z,8.22
2017-11-12T08:46:51.300Z,8.21
2017-11-12T08:48:06.127Z,8.22
2017-11-12T08:49:21.487Z,8.22
2017-11-12T08:50:36.599Z,8.24
2017-11-12T08:51:51.539Z,8.26
2017-11-12T08:53:06.698Z,8.27
2017-11-12T08:54:23.280Z,8.31
2017-11-12T08:55:37.656Z,8.36
2017-11-12T08:56:52.520Z,8.4
2017-11-12T08:58:06.869Z,8.44
2017-11-12T08:59:22.124Z,8.47
2017-11-12T09:00:36.765Z,8.51
2017-11-12T09:01:52.131Z,8.54
2017-11-12T09:03:07.200Z,8.57
2017-11-12T09:04:26.525Z,8.58
2017-11-12T09:05:41.512Z,8.57
2017-11-12T09:06:57.966Z,8.58
2017-11-12T09:08:13.410Z,8.62
2017-11-12T09:09:27.997Z,8.64
2017-11-12T09:10:42.346Z,8.68
2017-11-12T09:11:58.397Z,8.7
2017-11-12T09:13:13.168Z,8.71
2017-11-12T09:14:28.732Z,8.72
2017-11-12T09:20:56.948Z,8.68
2017-11-12T09:22:11.765Z,8.66
2017-11-12T09:24:03.657Z,8.66
2017-11-12T09:25:19.451Z,8.6
2017-11-12T09:26:34.578Z,8.57
2017-11-12T09:27:49.753Z,8.54
2017-11-12T09:29:04.367Z,8.5
2017-11-12T09:30:19.449Z,8.46
2017-11-12T09:31:34.961Z,8.42
2017-11-12T09:33:07.710Z,8.38
2017-11-12T09:34:22.305Z,8.35
2017-11-12T09:35:37.281Z,8.33
2017-11-12T09:36:52.364Z,8.31
2017-11-12T09:38:07.323Z,8.31
2017-11-12T09:39:23.592Z,8.31
2017-11-12T09:40:38.775Z,8.31
2017-11-12T09:42:11.572Z,8.34
2017-11-12T09:43:26.034Z,8.36
2017-11-12T09:44:40.382Z,8.4
2017-11-12T09:45:54.830Z,8.43
2017-11-12T09:47:09.762Z,8.49
2017-11-12T09:48:25.106Z,8.52
2017-11-12T09:49:40.028Z,8.57
2017-11-12T09:52:33.236Z,8.63
2017-11-12T09:53:48.000Z,8.71
2017-11-12T09:55:02.690Z,8.74
2017-11-12T09:56:20.586Z,8.78
2017-11-12T09:57:36.495Z,8.79
2017-11-12T09:58:51.733Z,8.8
2017-11-12T10:00:06.456Z,8.8
2017-11-12T10:01:25.988Z,8.77
2017-11-12T10:02:40.802Z,8.75
2017-11-12T10:03:57.401Z,8.7
2017-11-12T10:05:11.815Z,8.64
2017-11-12T10:06:26.207Z,8.58
2017-11-12T10:07:40.647Z,8.52
2017-11-12T10:08:55.069Z,8.46
2017-11-12T10:10:09.495Z,8.41
2017-11-12T10:11:24.360Z,8.35
2017-11-12T10:12:38.727Z,8.27
2017-11-12T10:14:08.843Z,8.26
2017-11-12T10:16:01.673Z,8.23
2017-11-12T10:17:30.226Z,8.23
2017-11-12T10:18:45.395Z,8.26
2017-11-12T10:19:59.782Z,8.29
2017-11-12T10:21:32.408Z,8.32
2017-11-12T10:22:58.500Z,8.36
2017-11-12T10:24:13.398Z,8.4
2017-11-12T10:25:50.660Z,8.42
2017-11-12T10:27:05.272Z,8.48
2017-11-12T10:28:20.243Z,8.51
2017-11-12T10:29:35.209Z,8.51
2017-11-12T10:30:49.843Z,8.52
2017-11-12T10:32:04.461Z,8.52
2017-11-12T10:37:31.994Z,8.37
2017-11-12T10:39:32.497Z,8.34
2017-11-12T10:41:45.674Z,8.31
2017-11-12T10:43:22.013Z,8.28
2017-11-12T10:44:53.605Z,8.23
2017-11-12T10:46:31.413Z,8.18
2017-11-12T10:48:08.957Z,8.16
2017-11-12T10:49:23.948Z,8.18
2017-11-12T10:50:38.935Z,8.17
2017-11-12T10:51:55.412Z,8.15
2017-11-12T10:53:10.307Z,8.12
2017-11-12T10:54:26.354Z,8.11
2017-11-12T10:55:41.487Z,8.1
2017-11-12T10:56:56.067Z,8.09
2017-11-12T10:58:11.251Z,8.09
2017-11-12T10:59:26.716Z,8.11
2017-11-12T11:00:43.171Z,8.14
2017-11-12T11:02:46.791Z,8.16
2017-11-12T11:04:01.373Z,8.23
2017-11-12T11:05:15.630Z,8.26
2017-11-12T11:06:30.884Z,8.32
2017-11-12T11:07:45.274Z,8.36
2017-11-12T11:09:00.508Z,8.4
2017-11-12T11:10:17.063Z,8.41
2017-11-12T11:11:33.047Z,8.43
2017-11-12T11:12:48.052Z,8.45
2017-11-12T11:14:03.129Z,8.47
2017-11-12T11:15:18.783Z,8.48
2017-11-12T11:16:34.442Z,8.49
2017-11-12T11:17:48.798Z,8.51
2017-11-12T11:19:03.689Z,8.51
2017-11-12T11:20:18.080Z,8.5
2017-11-12T11:21:58.653Z,8.49
2017-11-12T11:23:13.218Z,8.46
2017-11-12T11:24:27.816Z,8.45
2017-11-12T11:25:59.752Z,8.41
2017-11-12T11:27:15.261Z,8.38
2017-11-12T11:28:29.513Z,8.36
2017-11-12T11:30:02.623Z,8.34
2017-11-12T11:31:18.249Z,8.31
2017-11-12T11:32:32.717Z,8.3
2017-11-12T11:33:47.595Z,8.3
2017-11-12T11:35:02.704Z,8.28
2017-11-12T11:36:39.833Z,8.26
2017-11-12T11:38:14.964Z,8.23
2017-11-12T11:39:29.537Z,8.2
2017-11-12T11:40:44.538Z,8.19
2017-11-12T11:42:24.041Z,8.21
2017-11-12T11:43:39.094Z,8.2
2017-11-12T11:44:53.524Z,8.23
2017-11-12T11:46:09.012Z,8.22
2017-11-12T11:47:23.543Z,8.23
2017-11-12T11:48:42.845Z,8.19
2017-11-12T11:49:58.810Z,8.18
2017-11-12T11:51:25.020Z,8.12
2017-11-12T11:52:41.003Z,8.06
2017-11-12T11:54:11.188Z,8.04
2017-11-12T11:55:40.560Z,8.01
2017-11-12T11:56:55.154Z,8.04
2017-11-12T11:58:09.795Z,8.03
2017-11-12T11:59:24.562Z,8.02
2017-11-12T12:00:39.067Z,8.02
2017-11-12T12:01:53.581Z,8.01
2017-11-12T12:03:08.327Z,8
2017-11-12T12:04:23.903Z,8.01
2017-11-12T12:06:03.862Z,8
2017-11-12T12:07:18.895Z,8.05
2017-11-12T12:08:34.169Z,8.06
2017-11-12T12:10:39.668Z,8.11
2017-11-12T12:12:09.828Z,8.16
2017-11-12T12:13:25.214Z,8.18
2017-11-12T12:14:40.752Z,8.19
2017-11-12T12:15:56.805Z,8.17
2017-11-12T12:17:12.243Z,8.1
2017-11-12T12:18:28.344Z,8.05
2017-11-12T12:19:46.317Z,8.04
2017-11-12T12:21:02.437Z,8.01
2017-11-12T12:22:19.696Z,7.98
2017-11-12T12:23:35.114Z,7.94
2017-11-12T12:25:43.857Z,7.9
2017-11-12T12:27:15.344Z,7.79
2017-11-12T12:28:32.436Z,7.73
2017-11-12T12:29:47.003Z,7.68
2017-11-12T12:31:02.247Z,7.66
2017-11-12T12:32:17.604Z,7.62
2017-11-12T12:33:32.770Z,7.61
2017-11-12T12:34:49.341Z,7.57
2017-11-12T12:36:05.471Z,7.52
2017-11-12T12:37:20.557Z,7.48
2017-11-12T12:38:57.230Z,7.39
2017-11-12T12:40:12.333Z,7.36
2017-11-12T12:41:26.701Z,7.31
2017-11-12T12:42:42.439Z,7.24
2017-11-12T12:43:57.854Z,7.19
2017-11-12T12:45:29.371Z,7.17
2017-11-12T12:46:44.181Z,7.13
2017-11-12T12:47:59.417Z,7.14
2017-11-12T12:49:15.236Z,7.11
2017-11-12T12:50:30.062Z,7.1
2017-11-12T12:51:44.969Z,7.08
2017-11-12T12:53:00.495Z,7.05
2017-11-12T12:54:16.494Z,7.1
2017-11-12T12:55:46.185Z,7.14
2017-11-12T12:57:03.947Z,7.17
2017-11-12T12:58:23.941Z,7.2
2017-11-12T12:59:39.776Z,7.23
2017-11-12T13:00:55.072Z,7.26
2017-11-12T13:02:10.554Z,7.29
2017-11-12T13:03:26.452Z,7.31
2017-11-12T13:04:42.367Z,7.34
2017-11-12T13:05:57.144Z,7.39
2017-11-12T13:07:12.010Z,7.41
2017-11-12T13:08:26.933Z,7.42
2017-11-12T13:09:42.192Z,7.42
2017-11-12T13:10:57.375Z,7.44
2017-11-12T13:12:11.896Z,7.47
2017-11-12T13:13:26.682Z,7.48
2017-11-12T13:14:42.087Z,7.49
2017-11-12T13:16:02.636Z,7.49
2017-11-12T13:17:34.407Z,7.51
2017-11-12T13:19:25.496Z,7.55
2017-11-12T13:21:01.644Z,7.63
2017-11-12T13:22:27.319Z,7.69
2017-11-12T13:23:42.272Z,7.74
2017-11-12T13:24:57.105Z,7.75
2017-11-12T13:26:12.589Z,7.75
2017-11-12T13:27:27.280Z,7.76
2017-11-12T13:28:41.649Z,7.75
2017-11-12T13:29:58.188Z,7.73
2017-11-12T13:31:12.712Z,7.68
2017-11-12T13:32:39.974Z,7.66
2017-11-12T13:33:54.574Z,7.62
2017-11-12T13:35:09.457Z,7.65
2017-11-12T13:36:23.879Z,7.67
2017-11-12T13:37:39.664Z,7.66
2017-11-12T13:38:57.260Z,7.65
2017-11-12T13:40:13.150Z,7.64
2017-11-12T13:41:27.457Z,7.66
2017-11-12T13:42:42.051Z,7.69
2017-11-12T13:43:57.849Z,7.74
2017-11-12T13:45:12.707Z,7.8
2017-11-12T13:46:27.072Z,7.85
2017-11-12T13:47:41.673Z,7.89
2017-11-12T13:48:56.068Z,7.9
2017-11-12T13:50:10.941Z,7.91
2017-11-12T13:51:26.215Z,7.94
2017-11-12T13:52:40.759Z,7.96
2017-11-12T13:53:56.822Z,7.99
2017-11-12T13:55:14.622Z,8.03
2017-11-12T13:56:29.760Z,8
2017-11-12T13:57:49.928Z,7.95
2017-11-12T13:59:05.915Z,7.95
2017-11-12T14:00:22.712Z,7.93
2017-11-12T14:01:37.795Z,7.95
2017-11-12T14:03:17.661Z,7.95
2017-11-12T14:04:41.443Z,7.97
2017-11-12T14:05:56.527Z,8
2017-11-12T14:07:11.353Z,8.04
2017-11-12T14:08:26.326Z,8.09
2017-11-12T14:09:56.887Z,8.17
2017-11-12T14:11:12.151Z,8.25
2017-11-12T14:14:33.036Z,8.32
2017-11-12T14:15:47.459Z,8.58
2017-11-12T14:17:02.474Z,8.68
2017-11-12T14:18:17.420Z,8.73
2017-11-12T14:19:31.770Z,8.78
2017-11-12T14:20:46.283Z,8.82
2017-11-12T14:22:01.826Z,8.82
2017-11-12T14:23:16.626Z,8.87
2017-11-12T14:24:31.973Z,8.83
2017-11-12T14:26:35.030Z,8.77
2017-11-12T14:27:51.283Z,8.7
2017-11-12T14:29:06.058Z,8.65
2017-11-12T14:30:54.572Z,8.6
2017-11-12T14:32:16.058Z,8.54
2017-11-12T14:33:30.595Z,8.49
2017-11-12T14:34:45.000Z,8.41
2017-11-12T14:36:00.293Z,8.37
2017-11-12T14:37:17.049Z,8.33
2017-11-12T14:38:33.234Z,8.3
2017-11-12T14:40:16.573Z,8.24
2017-11-12T14:41:32.492Z,8.23
2017-11-12T14:42:48.191Z,8.22
2017-11-12T14:44:04.251Z,8.17
2017-11-12T14:45:36.176Z,8.16
2017-11-12T14:47:13.359Z,8.12
2017-11-12T14:48:28.401Z,8.08
2017-11-12T14:49:42.911Z,8.06
2017-11-12T14:51:15.585Z,8.02
2017-11-12T14:52:40.726Z,7.97
2017-11-12T14:53:57.560Z,7.95
2017-11-12T14:55:41.992Z,7.95
2017-11-12T14:57:35.302Z,7.92
2017-11-12T14:59:07.980Z,7.92
2017-11-12T15:00:22.435Z,7.9
2017-11-12T15:01:37.607Z,7.92
2017-11-12T15:02:52.075Z,7.92
2017-11-12T15:04:07.535Z,7.92
2017-11-12T15:05:22.236Z,7.95
2017-11-12T15:06:37.837Z,7.97
2017-11-12T15:07:52.322Z,7.97
2017-11-12T15:12:25.599Z,8.01
2017-11-12T15:13:39.848Z,8
2017-11-12T15:14:54.402Z,8.01
2017-11-12T15:16:09.052Z,8.01
2017-11-12T15:17:23.579Z,7.99
2017-11-12T15:18:38.634Z,7.99
2017-11-12T15:19:53.321Z,8.01
2017-11-12T15:21:08.992Z,8
2017-11-12T15:22:25.696Z,7.99
2017-11-12T15:23:42.171Z,7.95
2017-11-12T15:25:19.896Z,7.92
2017-11-12T15:26:34.465Z,7.86
2017-11-12T15:27:49.457Z,7.86
2017-11-12T15:29:28.480Z,7.84
2017-11-12T15:31:04.976Z,7.79
2017-11-12T15:32:26.109Z,7.71
2017-11-12T15:33:42.422Z,7.64
2017-11-12T15:34:58.259Z,7.57
2017-11-12T15:36:14.510Z,7.53
2017-11-12T15:37:29.597Z,7.47
2017-11-12T15:38:59.955Z,7.43
2017-11-12T15:40:15.069Z,7.41
2017-11-12T15:41:29.512Z,7.4
2017-11-12T15:42:45.094Z,7.42
2017-11-12T15:44:00.075Z,7.44
2017-11-12T15:45:15.200Z,7.46
2017-11-12T15:46:29.733Z,7.48
2017-11-12T15:48:03.641Z,7.49
2017-11-12T15:49:18.470Z,7.54
2017-11-12T15:50:33.078Z,7.56
2017-11-12T15:52:50.203Z,7.57
2017-11-12T15:54:06.117Z,7.58
2017-11-12T15:55:21.819Z,7.57
2017-11-12T15:56:36.124Z,7.57
2017-11-12T15:57:50.496Z,7.55
2017-11-12T15:59:04.874Z,7.5
2017-11-12T16:00:20.326Z,7.48
2017-11-12T16:01:35.746Z,7.46
2017-11-12T16:02:50.229Z,7.45
2017-11-12T16:04:04.814Z,7.43
2017-11-12T16:05:19.431Z,7.44
2017-11-12T16:06:34.402Z,7.44
2017-11-12T16:07:50.977Z,7.44
2017-11-12T16:09:06.463Z,7.42
2017-11-12T16:10:21.691Z,7.41
2017-11-12T16:11:36.636Z,7.43
2017-11-12T16:12:51.122Z,7.42
2017-11-12T16:14:06.445Z,7.41
2017-11-12T16:15:21.222Z,7.38
2017-11-12T16:16:36.075Z,7.35
2017-11-12T16:17:50.669Z,7.32
2017-11-12T16:19:05.259Z,7.33
2017-11-12T16:20:19.754Z,7.34
2017-11-12T16:21:35.185Z,7.36
2017-11-12T16:22:50.335Z,7.36
2017-11-12T16:24:05.948Z,7.36
2017-11-12T16:25:21.518Z,7.39
2017-11-12T16:26:35.969Z,7.4
2017-11-12T16:27:50.578Z,7.41
2017-11-12T16:29:07.369Z,7.39
2017-11-12T16:30:25.213Z,7.35
2017-11-12T16:31:39.906Z,7.35
2017-11-12T16:32:55.201Z,7.33
2017-11-12T16:34:09.518Z,7.34
2017-11-12T16:35:25.321Z,7.35
2017-11-12T16:36:42.655Z,7.32
2017-11-12T16:37:57.814Z,7.33
2017-11-12T16:39:12.192Z,7.35
2017-11-12T16:40:26.742Z,7.36
2017-11-12T16:41:40.997Z,7.35
2017-11-12T16:42:55.656Z,7.32
2017-11-12T16:44:10.890Z,7.3
2017-11-12T16:45:26.134Z,7.26
2017-11-12T16:46:41.561Z,7.22
2017-11-12T16:47:55.939Z,7.18
2017-11-12T16:49:11.028Z,7.14
2017-11-12T16:50:26.479Z,7.15
2017-11-12T16:51:41.324Z,7.16
2017-11-12T16:52:57.823Z,7.16
2017-11-12T16:54:13.426Z,7.18
2017-11-12T16:55:28.576Z,7.18
2017-11-12T16:56:44.458Z,7.2
2017-11-12T16:57:59.393Z,7.21
2017-11-12T16:59:14.007Z,7.22
2017-11-12T17:00:28.368Z,7.21
2017-11-12T17:01:42.941Z,7.21
2017-11-12T17:02:57.948Z,7.2
2017-11-12T17:04:12.425Z,7.16
2017-11-12T17:05:27.331Z,7.11
2017-11-12T17:06:42.081Z,7.09
2017-11-12T17:07:56.561Z,7.05
2017-11-12T17:09:12.613Z,7.04
2017-11-12T17:10:27.263Z,7.01
2017-11-12T17:11:43.257Z,7.01
2017-11-12T17:12:57.987Z,7.01
2017-11-12T17:14:12.585Z,6.99
2017-11-12T17:15:27.638Z,6.97
2017-11-12T17:16:43.022Z,6.94
2017-11-12T17:17:57.951Z,6.91
2017-11-12T17:19:13.281Z,6.87
2017-11-12T17:20:28.114Z,6.86
2017-11-12T17:21:44.280Z,6.87
2017-11-12T17:22:58.548Z,6.86
2017-11-12T17:24:12.953Z,6.89
2017-11-12T17:25:27.624Z,6.91
2017-11-12T17:26:42.501Z,6.94
2017-11-12T17:27:57.709Z,6.96
2017-11-12T17:29:12.511Z,6.99
2017-11-12T17:30:27.021Z,7.02
2017-11-12T17:31:41.651Z,7.04
2017-11-12T17:32:56.418Z,7.05
2017-11-12T17:34:11.194Z,7.07
2017-11-12T17:35:25.567Z,7.09
2017-11-12T17:36:40.245Z,7.08
2017-11-12T17:37:54.653Z,7.09
2017-11-12T17:39:09.702Z,7.09
2017-11-12T17:40:24.808Z,7.08
2017-11-12T17:41:39.629Z,7.06
2017-11-12T17:42:54.281Z,7.08
2017-11-12T17:44:08.552Z,7.1
2017-11-12T17:45:23.320Z,7.14
2017-11-12T17:46:37.899Z,7.16
2017-11-12T17:48:20.868Z,7.18
2017-11-12T17:49:58.018Z,7.23
2017-11-12T17:51:12.391Z,7.24
2017-11-12T17:52:28.021Z,7.25
2017-11-12T17:53:43.689Z,7.26
2017-11-12T17:54:58.555Z,7.27
2017-11-12T17:56:12.994Z,7.28
2017-11-12T17:57:27.571Z,7.3
2017-11-12T17:58:41.880Z,7.31
2017-11-12T17:59:56.701Z,7.35
2017-11-12T18:01:11.554Z,7.37
2017-11-12T18:09:40.272Z,7.42
2017-11-12T18:10:55.091Z,7.42
2017-11-12T18:12:09.967Z,7.39
2017-11-12T18:13:24.764Z,7.4
2017-11-12T18:14:39.308Z,7.4
2017-11-12T18:15:53.519Z,7.4
2017-11-12T18:17:07.883Z,7.42
2017-11-12T18:18:23.515Z,7.42
2017-11-12T18:19:38.404Z,7.41
2017-11-12T18:20:53.405Z,7.39
2017-11-12T18:22:08.096Z,7.38
2017-11-12T18:23:22.667Z,7.36
2017-11-12T18:24:37.704Z,7.36
2017-11-12T18:25:51.989Z,7.37
2017-11-12T18:27:06.409Z,7.37
2017-11-12T18:28:21.984Z,7.36
2017-11-12T18:29:37.159Z,7.34
2017-11-12T18:30:51.900Z,7.33
2017-11-12T18:32:06.605Z,7.32
2017-11-12T18:33:21.104Z,7.31
2017-11-12T18:34:36.359Z,7.3
2017-11-12T18:35:51.462Z,7.28
2017-11-12T18:37:07.461Z,7.26
2017-11-12T18:38:23.228Z,7.23
2017-11-12T18:39:37.549Z,7.2
2017-11-12T18:40:51.901Z,7.19
2017-11-12T18:42:06.963Z,7.15
2017-11-12T18:43:22.702Z,7.12
2017-11-12T18:44:38.956Z,7.09
2017-11-12T18:45:56.136Z,7.04
2017-11-12T18:47:11.189Z,7.01
2017-11-12T18:48:27.467Z,6.98
2017-11-12T18:49:45.157Z,6.97
2017-11-12T18:51:03.070Z,6.97
2017-11-12T18:52:18.813Z,6.95
2017-11-12T18:53:35.151Z,6.94
2017-11-12T18:54:50.352Z,6.92
2017-11-12T18:56:04.965Z,6.91
2017-11-12T18:57:20.609Z,6.89
2017-11-12T18:58:37.642Z,6.88
2017-11-12T18:59:52.315Z,6.87
2017-11-12T19:01:08.140Z,6.82
2017-11-12T19:02:26.234Z,6.85
2017-11-12T19:05:28.038Z,6.86
2017-11-12T19:06:44.080Z,6.89
2017-11-12T19:07:59.074Z,6.9
2017-11-12T19:09:14.494Z,6.91
2017-11-12T19:10:29.713Z,6.92
2017-11-12T19:11:45.311Z,6.92
2017-11-12T19:13:00.122Z,6.95
2017-11-12T19:14:14.794Z,6.96
2017-11-12T19:15:29.874Z,6.97
2017-11-12T19:16:44.572Z,6.98
2017-11-12T19:18:00.982Z,7
2017-11-12T19:19:15.562Z,6.98
2017-11-12T19:20:33.376Z,7.01
2017-11-12T19:21:52.342Z,7.04
2017-11-12T19:23:18.080Z,7.07
2017-11-12T19:24:39.999Z,7.1
2017-11-12T19:26:01.874Z,7.14
2017-11-12T19:27:21.822Z,7.18
2017-11-12T19:28:36.220Z,7.21
2017-11-12T19:29:51.843Z,7.25
2017-11-12T19:31:07.144Z,7.29
2017-11-12T19:32:21.559Z,7.33
2017-11-12T19:33:36.908Z,7.37
2017-11-12T19:34:52.419Z,7.4
2017-11-12T19:36:07.499Z,7.4
2017-11-12T19:37:22.426Z,7.41
2017-11-12T19:38:36.896Z,7.41
2017-11-12T19:39:51.555Z,7.41
2017-11-12T19:41:06.109Z,7.41
2017-11-12T19:42:21.469Z,7.42
2017-11-12T19:43:37.697Z,7.42
2017-11-12T19:44:52.327Z,7.44
2017-11-12T19:46:08.448Z,7.45
2017-11-12T19:47:22.775Z,7.46
2017-11-12T19:48:37.187Z,7.45
2017-11-12T19:49:51.968Z,7.47
2017-11-12T19:51:06.733Z,7.45
2017-11-12T19:52:21.266Z,7.42
2017-11-12T19:53:36.055Z,7.41
2017-11-12T19:54:50.385Z,7.42
2017-11-12T19:56:06.283Z,7.41
2017-11-12T19:57:21.821Z,7.4
2017-11-12T19:58:36.155Z,7.4
2017-11-12T19:59:50.630Z,7.36
2017-11-12T20:01:05.455Z,7.33
2017-11-12T20:02:19.887Z,7.33
2017-11-12T20:03:34.309Z,7.32
2017-11-12T20:04:49.417Z,7.33
2017-11-12T20:06:04.399Z,7.34
2017-11-12T20:07:19.777Z,7.33
2017-11-12T20:08:35.878Z,7.34
2017-11-12T20:09:51.514Z,7.32
2017-11-12T20:11:05.962Z,7.31
2017-11-12T20:12:20.291Z,7.31
2017-11-12T20:13:35.149Z,7.31
2017-11-12T20:14:49.461Z,7.28
2017-11-12T20:16:04.756Z,7.28
2017-11-12T20:17:19.929Z,7.28
2017-11-12T20:18:34.221Z,7.28
2017-11-12T20:19:48.477Z,7.28
2017-11-12T20:21:04.129Z,7.3
2017-11-12T20:22:19.275Z,7.29
2017-11-12T20:23:34.293Z,7.29
2017-11-12T20:24:49.285Z,7.29
2017-11-12T20:26:04.400Z,7.27
2017-11-12T20:27:19.862Z,7.29
2017-11-12T20:28:35.283Z,7.31
2017-11-12T20:29:51.403Z,7.35
2017-11-12T20:31:07.266Z,7.38
2017-11-12T20:32:21.974Z,7.43
2017-11-12T20:33:37.017Z,7.47
2017-11-12T20:34:52.338Z,7.47
2017-11-12T20:36:07.592Z,7.46
2017-11-12T20:37:23.757Z,7.45
2017-11-12T20:38:38.431Z,7.46
2017-11-12T20:39:53.157Z,7.45
2017-11-12T20:41:09.653Z,7.44
2017-11-12T20:42:25.711Z,7.46
2017-11-12T20:43:41.980Z,7.49
2017-11-12T20:44:57.039Z,7.48
2017-11-12T20:46:11.994Z,7.48
2017-11-12T20:47:27.446Z,7.48
2017-11-12T20:48:42.286Z,7.47
2017-11-12T20:49:56.797Z,7.47
2017-11-12T20:51:11.521Z,7.47
2017-11-12T20:52:26.174Z,7.46
2017-11-12T20:53:41.206Z,7.43
2017-11-12T20:54:55.958Z,7.41
2017-11-12T20:56:11.037Z,7.39
2017-11-12T20:57:26.834Z,7.39
2017-11-12T20:58:41.343Z,7.38
2017-11-12T20:59:55.918Z,7.36
2017-11-12T21:01:10.416Z,7.35
2017-11-12T21:02:24.682Z,7.33
2017-11-12T21:03:39.720Z,7.31
2017-11-12T21:04:54.700Z,7.32
2017-11-12T21:06:10.736Z,7.33
2017-11-12T21:07:27.194Z,7.35
2017-11-12T21:08:42.402Z,7.36
2017-11-12T21:09:58.566Z,7.37
2017-11-12T21:11:13.568Z,7.38
2017-11-12T21:12:27.853Z,7.38
2017-11-12T21:13:42.214Z,7.37
2017-11-12T21:14:57.374Z,7.37
2017-11-12T21:16:12.345Z,7.37
2017-11-12T21:17:26.541Z,7.37
2017-11-12T21:18:41.697Z,7.38
2017-11-12T21:19:56.105Z,7.38
2017-11-12T21:21:11.850Z,7.36
2017-11-12T21:22:26.045Z,7.39
2017-11-12T21:23:40.259Z,7.39
2017-11-12T21:24:54.698Z,7.39
2017-11-12T21:26:09.060Z,7.35
2017-11-12T21:27:23.391Z,7.33
2017-11-12T21:28:38.350Z,7.31
2017-11-12T21:29:52.620Z,7.31
2017-11-12T21:31:07.323Z,7.3
2017-11-12T21:32:21.934Z,7.29
2017-11-12T21:33:36.239Z,7.27
2017-11-12T21:34:50.532Z,7.25
2017-11-12T21:36:05.453Z,7.26
2017-11-12T21:37:19.668Z,7.26
2017-11-12T21:38:33.915Z,7.26
2017-11-12T21:39:49.259Z,7.23
2017-11-12T21:41:03.488Z,7.21
2017-11-12T21:42:17.801Z,7.21
2017-11-12T21:43:32.099Z,7.2
2017-11-12T21:44:46.935Z,7.21
2017-11-12T21:46:01.282Z,7.22
2017-11-12T21:47:15.487Z,7.2
2017-11-12T21:48:30.045Z,7.16
2017-11-12T21:49:44.422Z,7.16
2017-11-12T21:50:58.761Z,7.17
2017-11-12T21:52:13.375Z,7.19
2017-11-12T21:53:28.131Z,7.2
2017-11-12T21:54:42.375Z,7.19
2017-11-12T21:55:56.863Z,7.22
2017-11-12T21:57:16.873Z,7.25
2017-11-12T21:58:31.298Z,7.28
2017-11-12T21:59:45.937Z,7.29
2017-11-12T22:01:01.427Z,7.27
2017-11-12T22:02:16.720Z,7.25
2017-11-12T22:03:33.025Z,7.25
2017-11-12T22:04:49.031Z,7.26
2017-11-12T22:06:06.068Z,7.25
2017-11-12T22:07:23.980Z,7.23
2017-11-12T22:08:41.286Z,7.24
2017-11-12T22:09:57.550Z,7.25
2017-11-12T22:11:13.507Z,7.26
2017-11-12T22:12:28.163Z,7.26
2017-11-12T22:13:43.090Z,7.26
2017-11-12T22:14:58.247Z,7.25
2017-11-12T22:16:13.270Z,7.26
2017-11-12T22:17:28.124Z,7.26
2017-11-12T22:18:42.508Z,7.24
2017-11-12T22:19:56.993Z,7.23
2017-11-12T22:21:11.794Z,7.24
2017-11-12T22:22:28.338Z,7.23
2017-11-12T22:23:43.827Z,7.23
2017-11-12T22:24:58.547Z,7.22
2017-11-12T22:26:13.090Z,7.22
2017-11-12T22:27:27.998Z,7.21
2017-11-12T22:28:42.767Z,7.22
2017-11-12T22:29:57.020Z,7.23
2017-11-12T22:31:12.463Z,7.24
2017-11-12T22:32:27.656Z,7.24
2017-11-12T22:33:43.112Z,7.23
2017-11-12T22:34:59.231Z,7.22
2017-11-12T22:36:13.672Z,7.2
2017-11-12T22:37:28.861Z,7.18
2017-11-12T22:38:45.160Z,7.15
2017-11-12T22:40:00.085Z,7.15
2017-11-12T22:41:15.085Z,7.14
2017-11-12T22:42:30.909Z,7.14
2017-11-12T22:43:45.805Z,7.14
2017-11-12T22:45:00.211Z,7.16
2017-11-12T22:46:15.208Z,7.15
2017-11-12T22:47:30.390Z,7.15
2017-11-12T22:48:45.434Z,7.15
2017-11-12T22:50:00.771Z,7.15
2017-11-12T22:51:17.551Z,7.17
2017-11-12T22:52:34.152Z,7.16
2017-11-12T22:53:50.003Z,7.15
2017-11-12T22:55:04.232Z,7.15
2017-11-12T22:56:18.501Z,7.16
2017-11-12T22:57:34.077Z,7.15
2017-11-12T22:58:48.844Z,7.15
2017-11-12T23:00:03.669Z,7.18
2017-11-12T23:01:18.794Z,7.19
2017-11-12T23:02:33.825Z,7.21
2017-11-12T23:03:48.143Z,7.21
2017-11-12T23:05:02.413Z,7.21
2017-11-12T23:06:17.360Z,7.19
2017-11-12T23:07:31.808Z,7.18
2017-11-12T23:08:46.390Z,7.17
2017-11-12T23:10:01.590Z,7.16
2017-11-12T23:11:16.563Z,7.15
2017-11-12T23:12:31.255Z,7.15
2017-11-12T23:13:45.892Z,7.17
2017-11-12T23:15:00.171Z,7.17
2017-11-12T23:16:14.868Z,7.18
2017-11-12T23:17:30.819Z,7.17
2017-11-12T23:18:45.890Z,7.18
2017-11-12T23:20:01.180Z,7.22
2017-11-12T23:21:16.069Z,7.24
2017-11-12T23:22:30.641Z,7.24
2017-11-12T23:23:44.999Z,7.26
2017-11-12T23:24:59.321Z,7.27
2017-11-12T23:26:13.932Z,7.29
2017-11-12T23:27:29.856Z,7.29
2017-11-12T23:28:44.621Z,7.27
2017-11-12T23:29:59.774Z,7.3
2017-11-12T23:31:13.994Z,7.32
2017-11-12T23:32:28.504Z,7.32
2017-11-12T23:33:42.868Z,7.32
2017-11-12T23:34:57.086Z,7.3
2017-11-12T23:36:11.684Z,7.29
2017-11-12T23:37:25.986Z,7.28
2017-11-12T23:38:40.633Z,7.28
2017-11-12T23:39:55.263Z,7.27
2017-11-12T23:41:09.477Z,7.26
2017-11-12T23:42:24.143Z,7.26
2017-11-12T23:43:39.218Z,7.27
2017-11-12T23:44:53.501Z,7.28
2017-11-12T23:46:07.716Z,7.29
2017-11-12T23:47:21.938Z,7.3
2017-11-12T23:48:37.442Z,7.3
2017-11-12T23:49:51.650Z,7.29
2017-11-12T23:51:05.901Z,7.26
2017-11-12T23:52:20.260Z,7.25
2017-11-12T23:53:34.541Z,7.25
2017-11-12T23:54:48.783Z,7.24
2017-11-12T23:56:41.173Z,7.26
2017-11-12T23:57:55.783Z,7.29
2017-11-12T23:59:10.563Z,7.3
